In Rescue
 
Open Full Screen Window  High Contrast Mode
Wind Gusting 00 knots
06
February 25, 2021 4:05 PM EST
Weather Information
Wind Direction
  300 °
Wind Speed
  06 kt (7 mph)
Wind Gust
  00 kt (0 mph)
Altimeter
30.31 in
Visibility
10 SM
Temperature
03° C
37° F
Dewpoint
-02° C
28° F
Humidity
70%
1hr Rain Fall
00.00 in.
24hr Rain Fall
00.00 in.
Sky Condition
Few @ 3,100 ft
VFR

METAR KEDJ 252105Z AUTO 30006KT 10SM FEW031 03/M02 A3031 RMK AO1

FAA Disclaimer: The data displayed is for advisory purposes only and is not to be used for flight planning or operations.